sensor_id;sensor_type;location;lat;lon;timestamp;P1;durP1;ratioP1;P2;durP2;ratioP2
9304;SDS011;4690;52.422;13.486;2023-02-10T00:06:18;16.53;;;13.13;;
9304;SDS011;4690;52.422;13.486;2023-02-10T00:08:49;15.30;;;12.83;;
9304;SDS011;4690;52.422;13.486;2023-02-10T00:11:17;19.70;;;13.23;;
9304;SDS011;4690;52.422;13.486;2023-02-10T00:13:44;18.10;;;13.67;;
9304;SDS011;4690;52.422;13.486;2023-02-10T00:16:11;15.90;;;13.20;;
9304;SDS011;4690;52.422;13.486;2023-02-10T00:18:39;17.83;;;14.00;;
9304;SDS011;4690;52.422;13.486;2023-02-10T00:21:11;18.80;;;14.17;;
9304;SDS011;4690;52.422;13.486;2023-02-10T00:23:41;16.47;;;13.37;;
9304;SDS011;4690;52.422;13.486;2023-02-10T00:26:09;16.90;;;13.50;;
9304;SDS011;4690;52.422;13.486;2023-02-10T00:28:37;18.30;;;14.13;;
9304;SDS011;4690;52.422;13.486;2023-02-10T00:31:06;17.90;;;13.03;;
9304;SDS011;4690;52.422;13.486;2023-02-10T00:33:36;17.13;;;13.53;;
9304;SDS011;4690;52.422;13.486;2023-02-10T00:36:06;17.20;;;13.93;;
9304;SDS011;4690;52.422;13.486;2023-02-10T00:38:34;15.40;;;13.77;;
9304;SDS011;4690;52.422;13.486;2023-02-10T00:41:33;16.13;;;13.20;;
9304;SDS011;4690;52.422;13.486;2023-02-10T00:43:52;16.40;;;12.97;;
9304;SDS011;4690;52.422;13.486;2023-02-10T00:46:19;16.23;;;13.63;;
9304;SDS011;4690;52.422;13.486;2023-02-10T00:48:47;15.17;;;12.50;;
9304;SDS011;4690;52.422;13.486;2023-02-10T00:51:14;16.53;;;13.03;;
9304;SDS011;4690;52.422;13.486;2023-02-10T00:53:41;16.83;;;13.30;;
9304;SDS011;4690;52.422;13.486;2023-02-10T00:56:07;14.57;;;12.70;;
9304;SDS011;4690;52.422;13.486;2023-02-10T00:58:35;18.13;;;12.97;;
9304;SDS011;4690;52.422;13.486;2023-02-10T01:01:02;17.97;;;14.00;;
9304;SDS011;4690;52.422;13.486;2023-02-10T01:03:28;18.57;;;13.93;;
9304;SDS011;4690;52.422;13.486;2023-02-10T01:05:54;17.80;;;13.60;;
9304;SDS011;4690;52.422;13.486;2023-02-10T01:08:20;17.60;;;13.80;;
9304;SDS011;4690;52.422;13.486;2023-02-10T01:10:46;16.53;;;13.60;;
9304;SDS011;4690;52.422;13.486;2023-02-10T01:13:13;16.43;;;13.60;;
9304;SDS011;4690;52.422;13.486;2023-02-10T01:15:43;19.83;;;14.80;;
9304;SDS011;4690;52.422;13.486;2023-02-10T01:18:11;17.40;;;13.50;;
9304;SDS011;4690;52.422;13.486;2023-02-10T01:20:39;17.90;;;13.97;;
9304;SDS011;4690;52.422;13.486;2023-02-10T01:23:07;17.73;;;13.50;;
9304;SDS011;4690;52.422;13.486;2023-02-10T01:25:34;18.97;;;15.27;;
9304;SDS011;4690;52.422;13.486;2023-02-10T01:28:01;17.47;;;14.17;;
9304;SDS011;4690;52.422;13.486;2023-02-10T01:30:28;18.07;;;14.80;;
9304;SDS011;4690;52.422;13.486;2023-02-10T01:32:54;17.17;;;13.93;;
9304;SDS011;4690;52.422;13.486;2023-02-10T01:35:21;21.40;;;15.13;;
9304;SDS011;4690;52.422;13.486;2023-02-10T01:37:50;17.97;;;14.53;;
9304;SDS011;4690;52.422;13.486;2023-02-10T01:40:15;17.63;;;14.33;;
9304;SDS011;4690;52.422;13.486;2023-02-10T01:42:41;19.67;;;14.97;;
9304;SDS011;4690;52.422;13.486;2023-02-10T01:47:46;17.70;;;14.23;;
9304;SDS011;4690;52.422;13.486;2023-02-10T01:50:18;18.87;;;15.00;;
9304;SDS011;4690;52.422;13.486;2023-02-10T01:52:48;17.67;;;15.33;;
9304;SDS011;4690;52.422;13.486;2023-02-10T01:55:15;19.27;;;14.97;;
9304;SDS011;4690;52.422;13.486;2023-02-10T01:57:46;19.63;;;14.83;;
9304;SDS011;4690;52.422;13.486;2023-02-10T02:00:18;20.93;;;15.57;;
9304;SDS011;4690;52.422;13.486;2023-02-10T02:02:45;17.67;;;14.97;;
9304;SDS011;4690;52.422;13.486;2023-02-10T02:05:20;20.17;;;16.07;;
9304;SDS011;4690;52.422;13.486;2023-02-10T02:08:03;19.37;;;15.20;;
9304;SDS011;4690;52.422;13.486;2023-02-10T02:30:27;19.23;;;15.30;;
9304;SDS011;4690;52.422;13.486;2023-02-10T02:33:24;19.50;;;16.37;;
9304;SDS011;4690;52.422;13.486;2023-02-10T02:36:02;17.40;;;14.57;;
9304;SDS011;4690;52.422;13.486;2023-02-10T02:38:40;18.73;;;14.43;;
9304;SDS011;4690;52.422;13.486;2023-02-10T02:41:07;20.00;;;15.17;;
9304;SDS011;4690;52.422;13.486;2023-02-10T02:43:34;23.57;;;16.07;;
9304;SDS011;4690;52.422;13.486;2023-02-10T02:46:11;19.80;;;16.03;;
9304;SDS011;4690;52.422;13.486;2023-02-10T02:49:03;21.23;;;16.23;;
9304;SDS011;4690;52.422;13.486;2023-02-10T02:57:48;20.13;;;16.77;;
9304;SDS011;4690;52.422;13.486;2023-02-10T03:00:26;19.00;;;16.60;;
9304;SDS011;4690;52.422;13.486;2023-02-10T03:02:58;19.70;;;16.47;;
9304;SDS011;4690;52.422;13.486;2023-02-10T03:05:30;23.20;;;18.00;;
9304;SDS011;4690;52.422;13.486;2023-02-10T03:07:57;22.53;;;17.20;;
9304;SDS011;4690;52.422;13.486;2023-02-10T03:10:23;21.73;;;17.03;;
9304;SDS011;4690;52.422;13.486;2023-02-10T03:12:49;19.80;;;16.20;;
9304;SDS011;4690;52.422;13.486;2023-02-10T03:15:18;20.33;;;16.37;;
9304;SDS011;4690;52.422;13.486;2023-02-10T03:17:43;22.83;;;16.80;;
9304;SDS011;4690;52.422;13.486;2023-02-10T03:20:10;20.87;;;16.57;;
9304;SDS011;4690;52.422;13.486;2023-02-10T03:22:36;19.80;;;16.50;;
9304;SDS011;4690;52.422;13.486;2023-02-10T03:25:02;22.10;;;17.40;;
9304;SDS011;4690;52.422;13.486;2023-02-10T03:27:31;19.87;;;16.23;;
9304;SDS011;4690;52.422;13.486;2023-02-10T03:29:57;20.47;;;16.27;;
9304;SDS011;4690;52.422;13.486;2023-02-10T03:32:22;23.57;;;17.17;;
9304;SDS011;4690;52.422;13.486;2023-02-10T03:34:48;21.67;;;16.80;;
9304;SDS011;4690;52.422;13.486;2023-02-10T03:37:14;20.03;;;15.93;;
9304;SDS011;4690;52.422;13.486;2023-02-10T03:39:40;21.40;;;15.90;;
9304;SDS011;4690;52.422;13.486;2023-02-10T03:42:06;19.60;;;16.13;;
9304;SDS011;4690;52.422;13.486;2023-02-10T03:44:32;21.00;;;16.90;;
9304;SDS011;4690;52.422;13.486;2023-02-10T03:46:58;21.90;;;17.80;;
9304;SDS011;4690;52.422;13.486;2023-02-10T03:49:24;21.23;;;16.87;;
9304;SDS011;4690;52.422;13.486;2023-02-10T03:51:50;20.77;;;17.10;;
9304;SDS011;4690;52.422;13.486;2023-02-10T03:54:15;22.17;;;17.33;;
9304;SDS011;4690;52.422;13.486;2023-02-10T03:56:41;21.93;;;17.23;;
9304;SDS011;4690;52.422;13.486;2023-02-10T03:59:07;24.07;;;17.67;;
9304;SDS011;4690;52.422;13.486;2023-02-10T04:01:33;22.13;;;17.40;;
9304;SDS011;4690;52.422;13.486;2023-02-10T04:03:59;22.53;;;17.30;;
9304;SDS011;4690;52.422;13.486;2023-02-10T04:06:26;23.13;;;16.67;;
9304;SDS011;4690;52.422;13.486;2023-02-10T04:08:52;23.10;;;18.20;;
9304;SDS011;4690;52.422;13.486;2023-02-10T04:11:18;22.17;;;17.33;;
9304;SDS011;4690;52.422;13.486;2023-02-10T04:13:44;23.97;;;18.17;;
9304;SDS011;4690;52.422;13.486;2023-02-10T04:16:11;25.03;;;18.80;;
9304;SDS011;4690;52.422;13.486;2023-02-10T04:18:39;25.97;;;18.70;;
9304;SDS011;4690;52.422;13.486;2023-02-10T04:21:06;25.13;;;18.60;;
9304;SDS011;4690;52.422;13.486;2023-02-10T04:23:36;24.70;;;18.13;;
9304;SDS011;4690;52.422;13.486;2023-02-10T04:26:02;24.93;;;18.33;;
9304;SDS011;4690;52.422;13.486;2023-02-10T04:28:29;27.03;;;19.30;;
9304;SDS011;4690;52.422;13.486;2023-02-10T04:30:57;26.83;;;19.30;;
9304;SDS011;4690;52.422;13.486;2023-02-10T04:33:25;28.30;;;19.50;;
9304;SDS011;4690;52.422;13.486;2023-02-10T04:35:51;32.17;;;21.00;;
9304;SDS011;4690;52.422;13.486;2023-02-10T04:38:19;28.50;;;20.43;;
9304;SDS011;4690;52.422;13.486;2023-02-10T04:40:45;29.17;;;20.83;;
9304;SDS011;4690;52.422;13.486;2023-02-10T04:43:11;30.70;;;21.40;;
9304;SDS011;4690;52.422;13.486;2023-02-10T04:45:38;30.47;;;21.77;;
9304;SDS011;4690;52.422;13.486;2023-02-10T04:48:04;30.03;;;22.53;;
9304;SDS011;4690;52.422;13.486;2023-02-10T04:50:31;30.53;;;22.37;;
9304;SDS011;4690;52.422;13.486;2023-02-10T04:52:57;35.77;;;22.80;;
9304;SDS011;4690;52.422;13.486;2023-02-10T04:55:23;34.47;;;24.17;;
9304;SDS011;4690;52.422;13.486;2023-02-10T04:57:49;34.07;;;24.87;;
9304;SDS011;4690;52.422;13.486;2023-02-10T05:00:15;34.77;;;24.57;;
9304;SDS011;4690;52.422;13.486;2023-02-10T05:02:41;35.97;;;25.10;;
9304;SDS011;4690;52.422;13.486;2023-02-10T05:05:08;34.97;;;24.90;;
9304;SDS011;4690;52.422;13.486;2023-02-10T05:07:36;34.93;;;25.90;;
9304;SDS011;4690;52.422;13.486;2023-02-10T05:10:02;36.80;;;26.70;;
9304;SDS011;4690;52.422;13.486;2023-02-10T05:12:28;38.33;;;28.50;;
9304;SDS011;4690;52.422;13.486;2023-02-10T05:14:53;38.77;;;28.20;;
9304;SDS011;4690;52.422;13.486;2023-02-10T05:17:19;41.40;;;29.60;;
9304;SDS011;4690;52.422;13.486;2023-02-10T05:19:45;43.47;;;29.83;;
9304;SDS011;4690;52.422;13.486;2023-02-10T05:22:11;42.57;;;30.30;;
9304;SDS011;4690;52.422;13.486;2023-02-10T05:24:36;41.67;;;30.03;;
9304;SDS011;4690;52.422;13.486;2023-02-10T05:27:02;44.80;;;29.70;;
9304;SDS011;4690;52.422;13.486;2023-02-10T05:29:28;43.07;;;30.07;;
9304;SDS011;4690;52.422;13.486;2023-02-10T05:31:54;44.73;;;30.70;;
9304;SDS011;4690;52.422;13.486;2023-02-10T05:34:20;42.50;;;31.50;;
9304;SDS011;4690;52.422;13.486;2023-02-10T05:36:45;44.17;;;29.50;;
9304;SDS011;4690;52.422;13.486;2023-02-10T05:39:11;41.10;;;28.77;;
9304;SDS011;4690;52.422;13.486;2023-02-10T05:41:53;40.17;;;28.23;;
9304;SDS011;4690;52.422;13.486;2023-02-10T05:44:22;42.50;;;29.47;;
9304;SDS011;4690;52.422;13.486;2023-02-10T05:46:50;41.63;;;30.70;;
9304;SDS011;4690;52.422;13.486;2023-02-10T05:49:16;45.80;;;30.77;;
9304;SDS011;4690;52.422;13.486;2023-02-10T05:51:43;41.60;;;29.70;;
9304;SDS011;4690;52.422;13.486;2023-02-10T05:54:10;41.40;;;29.00;;
9304;SDS011;4690;52.422;13.486;2023-02-10T05:56:36;40.17;;;29.20;;
9304;SDS011;4690;52.422;13.486;2023-02-10T05:59:03;38.03;;;27.43;;
9304;SDS011;4690;52.422;13.486;2023-02-10T06:01:29;40.50;;;28.13;;
9304;SDS011;4690;52.422;13.486;2023-02-10T06:03:56;39.60;;;28.93;;
9304;SDS011;4690;52.422;13.486;2023-02-10T06:06:22;40.03;;;29.07;;
9304;SDS011;4690;52.422;13.486;2023-02-10T06:08:47;39.03;;;28.40;;
9304;SDS011;4690;52.422;13.486;2023-02-10T06:11:13;41.50;;;28.90;;
9304;SDS011;4690;52.422;13.486;2023-02-10T06:13:39;43.70;;;29.13;;
9304;SDS011;4690;52.422;13.486;2023-02-10T06:16:06;42.10;;;27.77;;
9304;SDS011;4690;52.422;13.486;2023-02-10T06:18:33;38.85;;;27.92;;
9304;SDS011;4690;52.422;13.486;2023-02-10T06:20:59;40.83;;;27.60;;
9304;SDS011;4690;52.422;13.486;2023-02-10T06:23:26;39.13;;;28.10;;
9304;SDS011;4690;52.422;13.486;2023-02-10T06:25:51;41.87;;;28.77;;
9304;SDS011;4690;52.422;13.486;2023-02-10T06:28:22;39.23;;;27.87;;
9304;SDS011;4690;52.422;13.486;2023-02-10T06:30:50;39.93;;;29.60;;
9304;SDS011;4690;52.422;13.486;2023-02-10T06:33:16;43.97;;;29.80;;
9304;SDS011;4690;52.422;13.486;2023-02-10T06:35:42;40.23;;;29.17;;
9304;SDS011;4690;52.422;13.486;2023-02-10T06:38:08;38.47;;;29.43;;
9304;SDS011;4690;52.422;13.486;2023-02-10T06:40:34;40.00;;;29.70;;
9304;SDS011;4690;52.422;13.486;2023-02-10T06:43:00;44.83;;;30.53;;
9304;SDS011;4690;52.422;13.486;2023-02-10T06:45:26;44.90;;;30.80;;
9304;SDS011;4690;52.422;13.486;2023-02-10T06:47:53;46.40;;;30.53;;
9304;SDS011;4690;52.422;13.486;2023-02-10T06:50:19;44.90;;;30.27;;
9304;SDS011;4690;52.422;13.486;2023-02-10T06:52:46;44.67;;;30.57;;
9304;SDS011;4690;52.422;13.486;2023-02-10T06:55:13;47.37;;;31.40;;
9304;SDS011;4690;52.422;13.486;2023-02-10T06:57:39;42.20;;;30.83;;
9304;SDS011;4690;52.422;13.486;2023-02-10T07:00:06;44.40;;;31.77;;
9304;SDS011;4690;52.422;13.486;2023-02-10T07:02:36;46.63;;;32.17;;
9304;SDS011;4690;52.422;13.486;2023-02-10T07:05:03;48.37;;;32.43;;
9304;SDS011;4690;52.422;13.486;2023-02-10T07:07:32;48.17;;;31.27;;
9304;SDS011;4690;52.422;13.486;2023-02-10T07:10:01;46.70;;;32.43;;
9304;SDS011;4690;52.422;13.486;2023-02-10T07:12:28;43.67;;;31.40;;
9304;SDS011;4690;52.422;13.486;2023-02-10T07:14:53;48.33;;;31.67;;
9304;SDS011;4690;52.422;13.486;2023-02-10T07:17:19;50.27;;;31.23;;
9304;SDS011;4690;52.422;13.486;2023-02-10T07:19:46;43.53;;;30.63;;
9304;SDS011;4690;52.422;13.486;2023-02-10T07:22:12;44.23;;;29.53;;
9304;SDS011;4690;52.422;13.486;2023-02-10T07:24:38;43.17;;;30.07;;
9304;SDS011;4690;52.422;13.486;2023-02-10T07:27:04;44.10;;;30.67;;
9304;SDS011;4690;52.422;13.486;2023-02-10T07:29:30;43.43;;;30.57;;
9304;SDS011;4690;52.422;13.486;2023-02-10T07:31:56;48.40;;;31.20;;
9304;SDS011;4690;52.422;13.486;2023-02-10T07:34:25;45.83;;;30.63;;
9304;SDS011;4690;52.422;13.486;2023-02-10T07:36:53;43.23;;;30.47;;
9304;SDS011;4690;52.422;13.486;2023-02-10T07:39:28;44.27;;;30.00;;
9304;SDS011;4690;52.422;13.486;2023-02-10T07:41:54;44.83;;;30.63;;
9304;SDS011;4690;52.422;13.486;2023-02-10T07:44:19;42.93;;;29.93;;
9304;SDS011;4690;52.422;13.486;2023-02-10T07:46:46;42.00;;;29.10;;
9304;SDS011;4690;52.422;13.486;2023-02-10T07:49:13;41.70;;;28.97;;
9304;SDS011;4690;52.422;13.486;2023-02-10T07:51:39;40.50;;;29.57;;
9304;SDS011;4690;52.422;13.486;2023-02-10T07:54:05;41.90;;;27.53;;
9304;SDS011;4690;52.422;13.486;2023-02-10T07:56:31;38.60;;;27.03;;
9304;SDS011;4690;52.422;13.486;2023-02-10T07:58:57;41.43;;;28.33;;
9304;SDS011;4690;52.422;13.486;2023-02-10T08:01:23;38.80;;;27.10;;
9304;SDS011;4690;52.422;13.486;2023-02-10T08:03:49;39.93;;;26.90;;
9304;SDS011;4690;52.422;13.486;2023-02-10T08:06:19;42.83;;;26.73;;
9304;SDS011;4690;52.422;13.486;2023-02-10T08:08:47;38.70;;;25.37;;
9304;SDS011;4690;52.422;13.486;2023-02-10T08:11:13;36.73;;;24.53;;
9304;SDS011;4690;52.422;13.486;2023-02-10T08:13:41;41.60;;;25.37;;
9304;SDS011;4690;52.422;13.486;2023-02-10T08:16:08;40.00;;;26.43;;
9304;SDS011;4690;52.422;13.486;2023-02-10T08:18:36;39.93;;;26.27;;
9304;SDS011;4690;52.422;13.486;2023-02-10T08:21:06;37.33;;;25.47;;
9304;SDS011;4690;52.422;13.486;2023-02-10T08:23:33;38.10;;;25.40;;
9304;SDS011;4690;52.422;13.486;2023-02-10T08:26:03;37.73;;;25.57;;
9304;SDS011;4690;52.422;13.486;2023-02-10T08:28:35;37.50;;;24.57;;
9304;SDS011;4690;52.422;13.486;2023-02-10T08:31:04;39.37;;;24.47;;
9304;SDS011;4690;52.422;13.486;2023-02-10T08:33:36;35.60;;;23.70;;
9304;SDS011;4690;52.422;13.486;2023-02-10T08:36:06;35.57;;;23.93;;
9304;SDS011;4690;52.422;13.486;2023-02-10T08:38:36;33.43;;;23.63;;
9304;SDS011;4690;52.422;13.486;2023-02-10T08:41:03;36.03;;;23.63;;
9304;SDS011;4690;52.422;13.486;2023-02-10T08:43:29;35.37;;;23.70;;
9304;SDS011;4690;52.422;13.486;2023-02-10T08:45:55;33.37;;;22.73;;
9304;SDS011;4690;52.422;13.486;2023-02-10T08:48:22;34.60;;;22.63;;
9304;SDS011;4690;52.422;13.486;2023-02-10T08:50:48;35.77;;;22.40;;
9304;SDS011;4690;52.422;13.486;2023-02-10T08:53:14;38.27;;;23.80;;
9304;SDS011;4690;52.422;13.486;2023-02-10T08:55:41;34.73;;;23.73;;
9304;SDS011;4690;52.422;13.486;2023-02-10T08:58:06;35.17;;;22.77;;
9304;SDS011;4690;52.422;13.486;2023-02-10T09:00:32;37.40;;;23.53;;
9304;SDS011;4690;52.422;13.486;2023-02-10T09:02:58;33.67;;;22.33;;
9304;SDS011;4690;52.422;13.486;2023-02-10T09:05:24;33.10;;;22.43;;
9304;SDS011;4690;52.422;13.486;2023-02-10T09:07:51;38.87;;;23.70;;
9304;SDS011;4690;52.422;13.486;2023-02-10T09:10:17;32.73;;;23.07;;
9304;SDS011;4690;52.422;13.486;2023-02-10T09:12:43;32.53;;;23.10;;
9304;SDS011;4690;52.422;13.486;2023-02-10T09:15:09;37.80;;;23.50;;
9304;SDS011;4690;52.422;13.486;2023-02-10T09:17:37;35.43;;;22.77;;
9304;SDS011;4690;52.422;13.486;2023-02-10T09:20:03;37.13;;;23.03;;
9304;SDS011;4690;52.422;13.486;2023-02-10T09:22:29;31.67;;;22.27;;
9304;SDS011;4690;52.422;13.486;2023-02-10T09:24:54;34.10;;;22.27;;
9304;SDS011;4690;52.422;13.486;2023-02-10T09:27:20;35.03;;;22.43;;
9304;SDS011;4690;52.422;13.486;2023-02-10T09:29:47;36.10;;;22.03;;
9304;SDS011;4690;52.422;13.486;2023-02-10T09:32:13;34.83;;;22.57;;
9304;SDS011;4690;52.422;13.486;2023-02-10T09:34:39;38.07;;;22.33;;
9304;SDS011;4690;52.422;13.486;2023-02-10T09:37:05;37.73;;;23.60;;
9304;SDS011;4690;52.422;13.486;2023-02-10T09:39:32;36.53;;;24.17;;
9304;SDS011;4690;52.422;13.486;2023-02-10T09:42:03;33.20;;;22.63;;
9304;SDS011;4690;52.422;13.486;2023-02-10T09:44:51;34.90;;;22.17;;
9304;SDS011;4690;52.422;13.486;2023-02-10T09:53:07;44.47;;;24.43;;
9304;SDS011;4690;52.422;13.486;2023-02-10T09:55:48;36.63;;;23.70;;
9304;SDS011;4690;52.422;13.486;2023-02-10T09:58:32;36.07;;;22.87;;
9304;SDS011;4690;52.422;13.486;2023-02-10T10:04:04;34.90;;;22.47;;
9304;SDS011;4690;52.422;13.486;2023-02-10T10:06:53;33.50;;;23.57;;
9304;SDS011;4690;52.422;13.486;2023-02-10T10:09:43;35.47;;;23.40;;
9304;SDS011;4690;52.422;13.486;2023-02-10T10:12:16;35.20;;;22.33;;
9304;SDS011;4690;52.422;13.486;2023-02-10T10:14:44;32.90;;;23.60;;
9304;SDS011;4690;52.422;13.486;2023-02-10T10:26:07;39.90;;;23.93;;
9304;SDS011;4690;52.422;13.486;2023-02-10T10:29:19;40.10;;;24.37;;
9304;SDS011;4690;52.422;13.486;2023-02-10T10:32:17;36.50;;;23.13;;
9304;SDS011;4690;52.422;13.486;2023-02-10T10:34:53;36.27;;;22.67;;
9304;SDS011;4690;52.422;13.486;2023-02-10T10:37:22;40.33;;;23.37;;
9304;SDS011;4690;52.422;13.486;2023-02-10T10:40:15;38.23;;;22.70;;
9304;SDS011;4690;52.422;13.486;2023-02-10T10:42:51;35.57;;;22.73;;
9304;SDS011;4690;52.422;13.486;2023-02-10T10:50:40;38.10;;;22.53;;
9304;SDS011;4690;52.422;13.486;2023-02-10T10:53:17;38.30;;;22.47;;
9304;SDS011;4690;52.422;13.486;2023-02-10T10:55:57;35.87;;;22.53;;
9304;SDS011;4690;52.422;13.486;2023-02-10T10:58:27;37.83;;;22.77;;
9304;SDS011;4690;52.422;13.486;2023-02-10T11:00:59;34.07;;;22.70;;
9304;SDS011;4690;52.422;13.486;2023-02-10T11:03:27;42.77;;;22.70;;
9304;SDS011;4690;52.422;13.486;2023-02-10T11:05:58;33.93;;;22.87;;
9304;SDS011;4690;52.422;13.486;2023-02-10T11:08:45;34.17;;;20.97;;
9304;SDS011;4690;52.422;13.486;2023-02-10T11:11:31;35.13;;;21.97;;
9304;SDS011;4690;52.422;13.486;2023-02-10T11:13:59;36.10;;;21.73;;
9304;SDS011;4690;52.422;13.486;2023-02-10T11:16:26;35.53;;;22.20;;
9304;SDS011;4690;52.422;13.486;2023-02-10T11:18:57;33.20;;;22.73;;
9304;SDS011;4690;52.422;13.486;2023-02-10T11:21:35;36.43;;;21.87;;
9304;SDS011;4690;52.422;13.486;2023-02-10T11:26:59;34.47;;;20.50;;
9304;SDS011;4690;52.422;13.486;2023-02-10T11:29:40;31.73;;;20.50;;
9304;SDS011;4690;52.422;13.486;2023-02-10T11:34:49;32.63;;;20.83;;
9304;SDS011;4690;52.422;13.486;2023-02-10T11:37:24;36.33;;;21.43;;
9304;SDS011;4690;52.422;13.486;2023-02-10T11:39:53;32.83;;;20.57;;
9304;SDS011;4690;52.422;13.486;2023-02-10T11:42:27;37.23;;;20.93;;
9304;SDS011;4690;52.422;13.486;2023-02-10T11:47:36;31.33;;;19.43;;
9304;SDS011;4690;52.422;13.486;2023-02-10T11:50:03;35.00;;;20.17;;
9304;SDS011;4690;52.422;13.486;2023-02-10T11:52:49;35.07;;;20.67;;
9304;SDS011;4690;52.422;13.486;2023-02-10T11:55:15;36.47;;;19.90;;
9304;SDS011;4690;52.422;13.486;2023-02-10T11:57:48;35.90;;;19.90;;
9304;SDS011;4690;52.422;13.486;2023-02-10T12:06:14;32.13;;;19.17;;
9304;SDS011;4690;52.422;13.486;2023-02-10T12:08:57;32.13;;;19.27;;
9304;SDS011;4690;52.422;13.486;2023-02-10T12:11:40;30.53;;;18.93;;
9304;SDS011;4690;52.422;13.486;2023-02-10T12:14:38;26.10;;;19.17;;
9304;SDS011;4690;52.422;13.486;2023-02-10T12:17:29;29.03;;;18.67;;
9304;SDS011;4690;52.422;13.486;2023-02-10T12:23:04;35.07;;;18.87;;
9304;SDS011;4690;52.422;13.486;2023-02-10T12:28:30;32.40;;;19.77;;
9304;SDS011;4690;52.422;13.486;2023-02-10T12:31:16;35.60;;;19.97;;
9304;SDS011;4690;52.422;13.486;2023-02-10T12:46:36;31.60;;;19.43;;
9304;SDS011;4690;52.422;13.486;2023-02-10T12:53:43;27.43;;;18.73;;
9304;SDS011;4690;52.422;13.486;2023-02-10T12:56:09;31.70;;;19.80;;
9304;SDS011;4690;52.422;13.486;2023-02-10T12:58:50;30.43;;;18.93;;
9304;SDS011;4690;52.422;13.486;2023-02-10T13:01:31;30.83;;;18.53;;
9304;SDS011;4690;52.422;13.486;2023-02-10T13:07:07;29.30;;;18.50;;
9304;SDS011;4690;52.422;13.486;2023-02-10T13:10:38;31.67;;;18.77;;
9304;SDS011;4690;52.422;13.486;2023-02-10T13:13:22;27.30;;;17.07;;
9304;SDS011;4690;52.422;13.486;2023-02-10T13:16:00;32.97;;;18.00;;
9304;SDS011;4690;52.422;13.486;2023-02-10T13:19:06;27.67;;;17.40;;
9304;SDS011;4690;52.422;13.486;2023-02-10T13:22:19;35.23;;;17.73;;
9304;SDS011;4690;52.422;13.486;2023-02-10T13:25:26;30.40;;;17.03;;
9304;SDS011;4690;52.422;13.486;2023-02-10T13:36:38;27.33;;;16.30;;
9304;SDS011;4690;52.422;13.486;2023-02-10T13:39:16;25.97;;;15.37;;
9304;SDS011;4690;52.422;13.486;2023-02-10T13:41:48;24.73;;;14.47;;
9304;SDS011;4690;52.422;13.486;2023-02-10T13:44:30;22.77;;;15.50;;
9304;SDS011;4690;52.422;13.486;2023-02-10T13:47:11;23.67;;;15.23;;
9304;SDS011;4690;52.422;13.486;2023-02-10T13:49:55;25.07;;;14.87;;
9304;SDS011;4690;52.422;13.486;2023-02-10T13:52:31;26.13;;;14.93;;
9304;SDS011;4690;52.422;13.486;2023-02-10T13:57:33;27.30;;;15.17;;
9304;SDS011;4690;52.422;13.486;2023-02-10T14:02:42;24.13;;;15.90;;
9304;SDS011;4690;52.422;13.486;2023-02-10T14:05:24;25.83;;;15.70;;
9304;SDS011;4690;52.422;13.486;2023-02-10T14:07:59;25.83;;;15.50;;
9304;SDS011;4690;52.422;13.486;2023-02-10T14:10:40;31.20;;;16.60;;
9304;SDS011;4690;52.422;13.486;2023-02-10T14:13:22;28.70;;;16.50;;
9304;SDS011;4690;52.422;13.486;2023-02-10T14:15:56;30.47;;;16.13;;
9304;SDS011;4690;52.422;13.486;2023-02-10T14:18:30;23.83;;;15.43;;
9304;SDS011;4690;52.422;13.486;2023-02-10T14:21:09;24.67;;;16.37;;
9304;SDS011;4690;52.422;13.486;2023-02-10T14:23:42;25.63;;;16.30;;
9304;SDS011;4690;52.422;13.486;2023-02-10T14:26:28;24.27;;;14.90;;
9304;SDS011;4690;52.422;13.486;2023-02-10T14:28:59;22.23;;;15.30;;
9304;SDS011;4690;52.422;13.486;2023-02-10T14:31:28;26.80;;;16.37;;
9304;SDS011;4690;52.422;13.486;2023-02-10T14:33:59;26.10;;;15.60;;
9304;SDS011;4690;52.422;13.486;2023-02-10T14:36:27;26.07;;;15.87;;
9304;SDS011;4690;52.422;13.486;2023-02-10T14:38:55;24.23;;;15.17;;
9304;SDS011;4690;52.422;13.486;2023-02-10T14:41:27;24.33;;;15.70;;
9304;SDS011;4690;52.422;13.486;2023-02-10T14:43:57;24.37;;;15.87;;
9304;SDS011;4690;52.422;13.486;2023-02-10T14:48:57;32.47;;;19.67;;
9304;SDS011;4690;52.422;13.486;2023-02-10T14:51:37;32.33;;;18.83;;
9304;SDS011;4690;52.422;13.486;2023-02-10T14:54:16;30.33;;;18.33;;
9304;SDS011;4690;52.422;13.486;2023-02-10T14:56:58;33.10;;;19.73;;
9304;SDS011;4690;52.422;13.486;2023-02-10T15:01:55;33.27;;;20.27;;
9304;SDS011;4690;52.422;13.486;2023-02-10T15:04:29;30.90;;;19.60;;
9304;SDS011;4690;52.422;13.486;2023-02-10T15:06:55;34.93;;;19.90;;
9304;SDS011;4690;52.422;13.486;2023-02-10T15:09:30;31.87;;;19.33;;
9304;SDS011;4690;52.422;13.486;2023-02-10T15:12:02;32.53;;;20.00;;
9304;SDS011;4690;52.422;13.486;2023-02-10T15:14:49;30.70;;;20.07;;
9304;SDS011;4690;52.422;13.486;2023-02-10T15:22:39;31.17;;;20.87;;
9304;SDS011;4690;52.422;13.486;2023-02-10T15:25:41;32.97;;;20.10;;
9304;SDS011;4690;52.422;13.486;2023-02-10T15:30:40;32.70;;;20.93;;
9304;SDS011;4690;52.422;13.486;2023-02-10T15:33:19;30.00;;;19.97;;
9304;SDS011;4690;52.422;13.486;2023-02-10T15:36:02;32.60;;;19.90;;
9304;SDS011;4690;52.422;13.486;2023-02-10T15:38:41;29.93;;;19.30;;
9304;SDS011;4690;52.422;13.486;2023-02-10T15:44:01;32.27;;;20.77;;
9304;SDS011;4690;52.422;13.486;2023-02-10T15:46:50;34.17;;;21.07;;
9304;SDS011;4690;52.422;13.486;2023-02-10T15:49:36;34.73;;;21.70;;
9304;SDS011;4690;52.422;13.486;2023-02-10T15:52:02;37.87;;;22.37;;
9304;SDS011;4690;52.422;13.486;2023-02-10T15:54:28;33.37;;;22.70;;
9304;SDS011;4690;52.422;13.486;2023-02-10T15:57:03;33.97;;;22.47;;
9304;SDS011;4690;52.422;13.486;2023-02-10T15:59:31;32.53;;;21.17;;
9304;SDS011;4690;52.422;13.486;2023-02-10T16:02:01;32.87;;;22.03;;
9304;SDS011;4690;52.422;13.486;2023-02-10T16:04:33;35.43;;;22.60;;
9304;SDS011;4690;52.422;13.486;2023-02-10T16:06:59;36.07;;;22.97;;
9304;SDS011;4690;52.422;13.486;2023-02-10T16:09:27;35.43;;;21.23;;
9304;SDS011;4690;52.422;13.486;2023-02-10T16:11:55;30.97;;;22.03;;
9304;SDS011;4690;52.422;13.486;2023-02-10T16:14:22;31.33;;;21.13;;
9304;SDS011;4690;52.422;13.486;2023-02-10T16:16:52;33.43;;;21.70;;
9304;SDS011;4690;52.422;13.486;2023-02-10T16:19:22;35.37;;;22.30;;
9304;SDS011;4690;52.422;13.486;2023-02-10T16:21:51;38.70;;;23.03;;
9304;SDS011;4690;52.422;13.486;2023-02-10T16:24:20;40.30;;;22.83;;
9304;SDS011;4690;52.422;13.486;2023-02-10T16:26:49;31.57;;;22.50;;
9304;SDS011;4690;52.422;13.486;2023-02-10T16:29:16;96.57;;;75.20;;
9304;SDS011;4690;52.422;13.486;2023-02-10T16:31:47;37.50;;;24.37;;
9304;SDS011;4690;52.422;13.486;2023-02-10T16:34:13;29.87;;;21.63;;
9304;SDS011;4690;52.422;13.486;2023-02-10T16:36:39;35.47;;;22.47;;
9304;SDS011;4690;52.422;13.486;2023-02-10T16:39:10;54.37;;;43.43;;
9304;SDS011;4690;52.422;13.486;2023-02-10T16:41:48;46.03;;;32.53;;
9304;SDS011;4690;52.422;13.486;2023-02-10T16:44:14;34.40;;;23.63;;
9304;SDS011;4690;52.422;13.486;2023-02-10T16:46:41;35.47;;;23.30;;
9304;SDS011;4690;52.422;13.486;2023-02-10T16:49:09;35.53;;;26.63;;
9304;SDS011;4690;52.422;13.486;2023-02-10T16:51:36;35.03;;;23.67;;
9304;SDS011;4690;52.422;13.486;2023-02-10T16:54:02;41.03;;;28.43;;
9304;SDS011;4690;52.422;13.486;2023-02-10T16:56:34;45.33;;;26.70;;
9304;SDS011;4690;52.422;13.486;2023-02-10T16:59:05;40.73;;;24.83;;
9304;SDS011;4690;52.422;13.486;2023-02-10T17:01:32;35.70;;;22.50;;